createdAt,value
2018-08-04T00:00:13.741Z,101486.11
2018-08-04T00:02:41.862Z,101475.52
2018-08-04T00:05:11.105Z,101480.87
2018-08-04T00:07:39.784Z,101479.45
2018-08-04T00:10:17.344Z,101481.46
2018-08-04T00:12:46.680Z,101483.59
2018-08-04T00:15:14.796Z,101474.16
2018-08-04T00:17:42.915Z,101477.08
2018-08-04T00:20:11.057Z,101483.38
2018-08-04T00:22:39.148Z,101485.03
2018-08-04T00:25:07.297Z,101476.98
2018-08-04T00:27:35.419Z,101469.72
2018-08-04T00:30:03.664Z,101477.59
2018-08-04T00:32:31.748Z,101469.61
2018-08-04T00:34:59.846Z,101468.54
2018-08-04T00:37:27.949Z,101469.95
2018-08-04T00:39:56.056Z,101463.40
2018-08-04T00:42:24.154Z,101472.41
2018-08-04T00:44:52.297Z,101478.50
2018-08-04T00:47:20.472Z,101480.83
2018-08-04T00:49:48.613Z,101475.52
2018-08-04T00:52:16.820Z,101472.50
2018-08-04T00:54:44.904Z,101475.52
2018-08-04T00:57:13.152Z,101476.23
2018-08-04T00:59:41.477Z,101481.27
2018-08-04T01:02:09.575Z,101478.98
2018-08-04T01:04:37.679Z,101480.91
2018-08-04T01:07:05.831Z,101479.11
2018-08-04T01:09:33.949Z,101479.11
2018-08-04T01:12:02.117Z,101474.36
2018-08-04T01:14:30.232Z,101469.42
2018-08-04T01:16:58.331Z,101474.98
2018-08-04T01:19:26.469Z,101470.89
2018-08-04T01:21:54.599Z,101475.77
2018-08-04T01:24:22.746Z,101472.09
2018-08-04T01:26:50.909Z,101473.95
2018-08-04T01:29:19.069Z,101468.27
2018-08-04T01:31:47.177Z,101458.76
2018-08-04T01:34:15.377Z,101456.52
2018-08-04T01:36:43.516Z,101456.02
2018-08-04T01:39:12.157Z,101458.55
2018-08-04T01:41:41.020Z,101457.00
2018-08-04T01:44:09.817Z,101455.41
2018-08-04T01:46:37.910Z,101453.38
2018-08-04T01:49:06.150Z,101454.70
2018-08-04T01:51:34.237Z,101451.27
2018-08-04T01:54:02.304Z,101448.82
2018-08-04T01:56:30.424Z,101459.34
2018-08-04T01:58:58.536Z,101451.27
2018-08-04T02:01:26.682Z,101447.81
2018-08-04T02:03:54.782Z,101451.78
2018-08-04T02:06:22.910Z,101456.70
2018-08-04T02:08:50.992Z,101453.11
2018-08-04T02:11:19.110Z,101445.39
2018-08-04T02:13:47.219Z,101445.35
2018-08-04T02:16:15.312Z,101448.09
2018-08-04T02:18:43.381Z,101445.87
2018-08-04T02:21:11.475Z,101442.20
2018-08-04T02:23:39.555Z,101441.84
2018-08-04T02:26:07.646Z,101446.48
2018-08-04T02:28:35.702Z,101448.78
2018-08-04T02:31:03.805Z,101440.73
2018-08-04T02:33:31.886Z,101444.08
2018-08-04T02:35:59.981Z,101438.81
2018-08-04T02:38:28.074Z,101438.81
2018-08-04T02:40:56.166Z,101435.67
2018-08-04T02:43:24.240Z,101436.77
2018-08-04T02:45:52.347Z,101429.53
2018-08-04T02:48:20.453Z,101424.70
2018-08-04T02:50:48.589Z,101424.83
2018-08-04T02:53:16.674Z,101427.84
2018-08-04T02:55:44.768Z,101423.02
2018-08-04T02:58:12.922Z,101424.83
2018-08-04T03:00:41.035Z,101424.22
2018-08-04T03:03:09.593Z,101433.84
2018-08-04T03:05:37.701Z,101430.25
2018-08-04T03:08:05.857Z,101432.19
2018-08-04T03:10:33.948Z,101434.48
2018-08-04T03:13:02.085Z,101428.23
2018-08-04T03:15:30.188Z,101427.73
2018-08-04T03:17:58.284Z,101426.16
2018-08-04T03:20:26.397Z,101430.98
2018-08-04T03:22:54.510Z,101426.04
2018-08-04T03:25:22.576Z,101424.11
2018-08-04T03:27:50.674Z,101420.16
2018-08-04T03:30:18.748Z,101428.84
2018-08-04T03:32:46.839Z,101420.85
2018-08-04T03:35:14.960Z,101423.83
2018-08-04T03:37:43.063Z,101426.41
2018-08-04T03:40:11.831Z,101436.49
2018-08-04T03:42:40.162Z,101441.34
2018-08-04T03:45:08.323Z,101442.41
2018-08-04T03:47:36.465Z,101443.52
2018-08-04T03:50:05.460Z,101433.63
2018-08-04T03:52:33.548Z,101431.47
2018-08-04T03:55:01.676Z,101432.42
2018-08-04T03:57:29.811Z,101438.33
2018-08-04T03:59:57.935Z,101435.67
2018-08-04T04:02:26.091Z,101437.61
2018-08-04T04:04:54.189Z,101436.77
2018-08-04T04:07:22.275Z,101442.31
2018-08-04T04:09:50.369Z,101441.71
2018-08-04T04:12:18.477Z,101438.21
2018-08-04T04:14:46.536Z,101433.36
2018-08-04T04:17:14.681Z,101423.95
2018-08-04T04:19:42.824Z,101437.60
2018-08-04T04:22:10.924Z,101436.28
2018-08-04T04:24:39.085Z,101429.28
2018-08-04T04:27:07.166Z,101438.33
2018-08-04T04:29:35.286Z,101437.25
2018-08-04T04:32:04.084Z,101442.19
2018-08-04T04:34:32.768Z,101444.23
2018-08-04T04:37:00.911Z,101449.78
2018-08-04T04:39:29.026Z,101448.58
2018-08-04T04:41:57.114Z,101449.27
2018-08-04T04:44:25.282Z,101446.37
2018-08-04T04:46:53.388Z,101444.55
2018-08-04T04:49:21.475Z,101437.31
2018-08-04T04:51:49.566Z,101437.08
2018-08-04T04:54:17.695Z,101441.46
2018-08-04T04:56:45.821Z,101439.66
2018-08-04T04:59:14.025Z,101432.98
2018-08-04T05:01:42.091Z,101436.59
2018-08-04T05:04:10.204Z,101428.49
2018-08-04T05:06:38.347Z,101428.01
2018-08-04T05:09:07.485Z,101431.59
2018-08-04T05:11:35.602Z,101436.17
2018-08-04T05:14:03.701Z,101430.50
2018-08-04T05:16:31.792Z,101433.16
2018-08-04T05:18:59.924Z,101437.67
2018-08-04T05:21:28.106Z,101444.28
2018-08-04T05:23:56.235Z,101438.66
2018-08-04T05:26:24.355Z,101444.19
2018-08-04T05:28:52.548Z,101441.61
2018-08-04T05:31:20.650Z,101443.61
2018-08-04T05:33:48.847Z,101444.72
2018-08-04T05:36:17.893Z,101440.83
2018-08-04T05:38:46.052Z,101438.05
2018-08-04T05:41:14.167Z,101431.20
2018-08-04T05:43:42.357Z,101436.52
2018-08-04T05:46:10.122Z,101443.81
2018-08-04T05:48:38.260Z,101443.27
2018-08-04T05:51:06.724Z,101441.64
2018-08-04T05:53:34.898Z,101442.80
2018-08-04T05:56:03.028Z,101448.61
2018-08-04T05:58:31.259Z,101456.81
2018-08-04T06:00:59.454Z,101457.92
2018-08-04T06:03:28.568Z,101452.76
2018-08-04T06:05:56.736Z,101448.78
2018-08-04T06:08:24.903Z,101454.13
2018-08-04T06:10:53.007Z,101460.61
2018-08-04T06:13:21.157Z,101459.42
2018-08-04T06:15:49.305Z,101457.67
2018-08-04T06:18:17.403Z,101459.18
2018-08-04T06:20:45.509Z,101464.55
2018-08-04T06:23:13.572Z,101461.80
2018-08-04T06:25:41.860Z,101461.36
2018-08-04T06:28:09.966Z,101462.97
2018-08-04T06:30:38.175Z,101464.50
2018-08-04T06:33:06.290Z,101469.86
2018-08-04T06:35:34.379Z,101473.16
2018-08-04T06:38:02.499Z,101477.39
2018-08-04T06:40:30.608Z,101472.34
2018-08-04T06:42:58.696Z,101475.61
2018-08-04T06:45:26.944Z,101477.38
2018-08-04T06:47:55.500Z,101471.34
2018-08-04T06:50:23.734Z,101473.84
2018-08-04T06:52:51.875Z,101470.48
2018-08-04T06:55:20.035Z,101463.50
2018-08-04T06:57:48.122Z,101470.63
2018-08-04T07:00:16.256Z,101474.11
2018-08-04T07:02:44.443Z,101475.89
2018-08-04T07:05:12.602Z,101469.95
2018-08-04T07:07:40.696Z,101465.90
2018-08-04T07:10:08.842Z,101466.73
2018-08-04T07:12:36.982Z,101472.22
2018-08-04T07:15:05.184Z,101477.44
2018-08-04T07:17:33.319Z,101479.88
2018-08-04T07:20:01.471Z,101477.09
2018-08-04T07:22:29.619Z,101478.54
2018-08-04T07:24:57.770Z,101480.28
2018-08-04T07:27:25.891Z,101483.46
2018-08-04T07:29:59.624Z,101487.56
2018-08-04T07:32:27.752Z,101482.89
2018-08-04T07:34:55.889Z,101483.59
2018-08-04T07:37:24.151Z,101487.78
2018-08-04T07:39:52.249Z,101492.30
2018-08-04T07:42:20.323Z,101487.92
2018-08-04T07:44:48.482Z,101492.45
2018-08-04T07:47:16.640Z,101490.52
2018-08-04T07:49:44.815Z,101496.25
2018-08-04T07:52:12.904Z,101489.95
2018-08-04T07:54:41.154Z,101490.68
2018-08-04T07:57:09.284Z,101489.72
2018-08-04T07:59:37.406Z,101495.27
2018-08-04T08:02:05.899Z,101493.89
2018-08-04T08:04:34.069Z,101491.56
2018-08-04T08:07:02.350Z,101492.68
2018-08-04T08:09:30.467Z,101492.11
2018-08-04T08:11:58.546Z,101487.70
2018-08-04T08:14:26.810Z,101488.94
2018-08-04T08:16:54.935Z,101498.27
2018-08-04T08:19:23.082Z,101499.16
2018-08-04T08:21:51.258Z,101497.75
2018-08-04T08:24:19.439Z,101497.77
2018-08-04T08:26:47.524Z,101493.96
2018-08-04T08:29:15.687Z,101491.48
2018-08-04T08:31:44.155Z,101487.15
2018-08-04T08:34:12.311Z,101491.92
2018-08-04T08:36:40.422Z,101477.42
2018-08-04T08:39:09.126Z,101487.50
2018-08-04T08:41:37.401Z,101485.84
2018-08-04T08:44:05.576Z,101480.40
2018-08-04T08:46:33.746Z,101479.67
2018-08-04T08:49:01.907Z,101472.00
2018-08-04T08:51:30.227Z,101471.45
2018-08-04T08:53:58.479Z,101474.66
2018-08-04T08:56:26.498Z,101467.56
2018-08-04T08:58:54.596Z,101466.94
2018-08-04T09:01:22.818Z,101469.62
2018-08-04T09:03:50.885Z,101475.39
2018-08-04T09:06:19.159Z,101466.27
2018-08-04T09:08:47.621Z,101469.97
2018-08-04T09:11:15.774Z,101457.94
2018-08-04T09:13:43.924Z,101458.68
2018-08-04T09:16:12.812Z,101462.06
2018-08-04T09:18:40.972Z,101462.81
2018-08-04T09:21:09.427Z,101461.55
2018-08-04T09:23:38.521Z,101463.91
2018-08-04T09:26:06.683Z,101457.42
2018-08-04T09:28:34.777Z,101456.00
2018-08-04T09:31:02.868Z,101460.25
2018-08-04T09:33:31.013Z,101460.39
2018-08-04T09:35:59.138Z,101465.03
2018-08-04T09:38:27.245Z,101460.55
2018-08-04T09:40:55.367Z,101450.36
2018-08-04T09:43:23.478Z,101455.50
2018-08-04T09:45:51.637Z,101457.97
2018-08-04T09:48:19.800Z,101446.38
2018-08-04T09:50:47.952Z,101450.64
2018-08-04T09:53:16.123Z,101452.11
2018-08-04T09:55:46.546Z,101450.30
2018-08-04T09:58:14.773Z,101450.64
2018-08-04T10:00:48.298Z,101449.70
2018-08-04T10:03:16.430Z,101441.45
2018-08-04T10:05:44.543Z,101433.55
2018-08-04T10:08:13.529Z,101441.72
2018-08-04T10:10:41.733Z,101440.97
2018-08-04T10:13:10.801Z,101427.19
2018-08-04T10:15:38.963Z,101433.77
2018-08-04T10:18:07.072Z,101435.01
2018-08-04T10:20:35.211Z,101442.43
2018-08-04T10:23:03.284Z,101445.19
2018-08-04T10:25:31.425Z,101450.63
2018-08-04T10:27:59.508Z,101436.17
2018-08-04T10:30:27.632Z,101435.06
2018-08-04T10:32:55.735Z,101427.88
2018-08-04T10:35:23.909Z,101423.05
2018-08-04T10:37:52.042Z,101422.83
2018-08-04T10:40:20.177Z,101434.19
2018-08-04T10:42:48.320Z,101429.43
2018-08-04T10:45:16.429Z,101429.42
2018-08-04T10:47:44.506Z,101423.20
2018-08-04T10:50:12.620Z,101421.05
2018-08-04T10:52:40.728Z,101421.38
2018-08-04T10:55:08.876Z,101431.77
2018-08-04T10:57:37.042Z,101424.08
2018-08-04T11:00:07.619Z,101416.72
2018-08-04T11:02:35.721Z,101416.02
2018-08-04T11:05:03.903Z,101411.06
2018-08-04T11:07:32.117Z,101413.45
2018-08-04T11:10:00.518Z,101417.33
2018-08-04T11:12:28.679Z,101422.35
2018-08-04T11:14:56.801Z,101411.74
2018-08-04T11:17:24.988Z,101412.72
2018-08-04T11:19:53.109Z,101399.17
2018-08-04T11:22:21.254Z,101408.41
2018-08-04T11:24:49.381Z,101395.82
2018-08-04T11:27:18.439Z,101399.73
2018-08-04T11:29:46.574Z,101396.67
2018-08-04T11:32:14.720Z,101401.02
2018-08-04T11:34:42.815Z,101402.84
2018-08-04T11:37:11.608Z,101399.80
2018-08-04T11:39:39.855Z,101401.83
2018-08-04T11:42:07.976Z,101397.33
2018-08-04T11:44:36.099Z,101401.03
2018-08-04T11:47:04.220Z,101390.00
2018-08-04T11:49:32.353Z,101388.02
2018-08-04T11:52:00.536Z,101393.69
2018-08-04T11:54:28.739Z,101385.24
2018-08-04T11:56:56.938Z,101388.78
2018-08-04T11:59:25.083Z,101387.84
2018-08-04T12:01:53.262Z,101374.72
2018-08-04T12:04:21.360Z,101382.89
2018-08-04T12:06:49.497Z,101381.14
2018-08-04T12:09:17.611Z,101383.16
2018-08-04T12:11:45.775Z,101385.38
2018-08-04T12:14:13.903Z,101384.16
2018-08-04T12:16:42.036Z,101388.15
2018-08-04T12:19:10.183Z,101379.03
2018-08-04T12:21:39.103Z,101373.00
2018-08-04T12:24:07.965Z,101376.11
2018-08-04T12:26:36.100Z,101380.80
2018-08-04T12:29:04.932Z,101368.64
2018-08-04T12:31:33.090Z,101372.53
2018-08-04T12:34:01.861Z,101370.70
2018-08-04T12:36:30.107Z,101369.71
2018-08-04T12:38:58.236Z,101371.31
2018-08-04T12:41:26.387Z,101372.28
2018-08-04T12:43:54.507Z,101370.42
2018-08-04T12:46:22.630Z,101361.63
2018-08-04T12:48:50.786Z,101366.14
2018-08-04T12:51:18.905Z,101361.28
2018-08-04T12:53:47.034Z,101357.67
2018-08-04T12:56:16.251Z,101367.80
2018-08-04T12:58:44.573Z,101360.20
2018-08-04T13:01:13.364Z,101357.17
2018-08-04T13:03:41.492Z,101354.99
2018-08-04T13:06:09.676Z,101358.97
2018-08-04T13:08:37.780Z,101352.83
2018-08-04T13:11:05.980Z,101350.72
2018-08-04T13:13:34.113Z,101351.43
2018-08-04T13:16:02.292Z,101346.25
2018-08-04T13:18:30.500Z,101340.53
2018-08-04T13:20:58.666Z,101340.11
2018-08-04T13:23:26.838Z,101339.44
2018-08-04T13:25:54.939Z,101340.48
2018-08-04T13:28:23.080Z,101338.05
2018-08-04T13:30:51.255Z,101344.17
2018-08-04T13:33:19.796Z,101343.92
2018-08-04T13:35:47.952Z,101343.31
2018-08-04T13:38:16.111Z,101353.17
2018-08-04T13:40:44.206Z,101348.29
2018-08-04T13:43:12.984Z,101345.07
2018-08-04T13:45:41.147Z,101346.27
2018-08-04T13:48:09.297Z,101348.25
2018-08-04T13:50:37.439Z,101344.53
2018-08-04T13:53:05.541Z,101339.74
2018-08-04T13:55:33.713Z,101329.69
2018-08-04T13:58:01.882Z,101327.48
2018-08-04T14:00:30.866Z,101335.31
2018-08-04T14:02:59.121Z,101345.47
2018-08-04T14:05:27.223Z,101342.08
2018-08-04T14:07:55.356Z,101346.03
2018-08-04T14:10:23.481Z,101343.62
2018-08-04T14:12:52.593Z,101345.84
2018-08-04T14:15:20.707Z,101336.23
2018-08-04T14:17:48.835Z,101343.89
2018-08-04T14:20:16.979Z,101338.55
2018-08-04T14:22:45.132Z,101339.84
2018-08-04T14:25:13.223Z,101344.02
2018-08-04T14:27:41.355Z,101341.37
2018-08-04T14:30:10.266Z,101342.41
2018-08-04T14:32:38.434Z,101338.67
2018-08-04T14:35:06.803Z,101335.98
2018-08-04T14:37:35.116Z,101335.46
2018-08-04T14:40:03.416Z,101331.99
2018-08-04T14:42:31.555Z,101330.98
2018-08-04T14:44:59.706Z,101325.02
2018-08-04T14:47:27.867Z,101329.24
2018-08-04T14:49:56.000Z,101323.25
2018-08-04T14:52:24.091Z,101326.07
2018-08-04T14:54:52.425Z,101321.56
2018-08-04T14:57:20.563Z,101318.11
2018-08-04T14:59:49.048Z,101318.78
2018-08-04T15:02:17.172Z,101322.79
2018-08-04T15:04:45.357Z,101322.63
2018-08-04T15:07:13.491Z,101318.75
2018-08-04T15:09:41.644Z,101319.78
2018-08-04T15:12:09.759Z,101326.64
2018-08-04T15:14:37.848Z,101317.23
2018-08-04T15:17:05.995Z,101317.86
2018-08-04T15:19:34.110Z,101312.41
2018-08-04T15:22:02.232Z,101310.06
2018-08-04T15:24:30.300Z,101317.38
2018-08-04T15:26:58.352Z,101320.77
2018-08-04T15:29:26.463Z,101315.80
2018-08-04T15:31:54.586Z,101317.13
2018-08-04T15:34:22.687Z,101314.14
2018-08-04T15:36:50.864Z,101318.88
2018-08-04T15:39:18.935Z,101316.33
2018-08-04T15:41:47.058Z,101318.16
2018-08-04T15:44:15.233Z,101321.03
2018-08-04T15:46:43.344Z,101314.86
2018-08-04T15:49:11.450Z,101317.50
2018-08-04T15:51:39.536Z,101315.09
2018-08-04T15:54:07.632Z,101325.13
2018-08-04T15:56:35.702Z,101322.17
2018-08-04T15:59:03.809Z,101329.22
2018-08-04T16:01:31.951Z,101325.92
2018-08-04T16:04:00.063Z,101323.95
2018-08-04T16:06:28.217Z,101319.41
2018-08-04T16:08:56.351Z,101327.98
2018-08-04T16:11:24.428Z,101327.98
2018-08-04T16:13:52.535Z,101322.57
2018-08-04T16:16:20.707Z,101329.63
2018-08-04T16:18:48.861Z,101327.07
2018-08-04T16:21:16.941Z,101330.23
2018-08-04T16:23:45.047Z,101331.30
2018-08-04T16:26:13.164Z,101331.44
2018-08-04T16:28:41.291Z,101337.15
2018-08-04T16:31:09.391Z,101332.75
2018-08-04T16:33:37.515Z,101324.36
2018-08-04T16:36:05.692Z,101338.09
2018-08-04T16:38:33.782Z,101336.38
2018-08-04T16:41:01.852Z,101342.58
2018-08-04T16:43:29.985Z,101342.37
2018-08-04T16:45:58.112Z,101344.25
2018-08-04T16:48:26.203Z,101343.30
2018-08-04T16:50:54.276Z,101349.66
2018-08-04T16:53:22.407Z,101352.52
2018-08-04T16:55:50.519Z,101352.14
2018-08-04T16:58:19.060Z,101359.41
2018-08-04T17:00:47.140Z,101359.42
2018-08-04T17:03:15.257Z,101354.39
2018-08-04T17:05:43.340Z,101364.62
2018-08-04T17:08:11.535Z,101368.16
2018-08-04T17:10:39.646Z,101371.19
2018-08-04T17:13:07.936Z,101370.88
2018-08-04T17:15:36.020Z,101363.03
2018-08-04T17:18:04.233Z,101372.93
2018-08-04T17:20:32.409Z,101381.47
2018-08-04T17:23:00.962Z,101372.80
2018-08-04T17:25:29.143Z,101386.37
2018-08-04T17:27:57.377Z,101385.24
2018-08-04T17:30:25.711Z,101392.09
2018-08-04T17:32:53.941Z,101394.96
2018-08-04T17:35:29.520Z,101391.95
2018-08-04T17:37:57.834Z,101386.91
2018-08-04T17:40:25.988Z,101390.27
2018-08-04T17:42:54.122Z,101392.27
2018-08-04T17:45:22.216Z,101394.61
2018-08-04T17:47:50.345Z,101391.77
2018-08-04T17:50:18.523Z,101394.78
2018-08-04T17:52:46.626Z,101398.06
2018-08-04T17:55:14.728Z,101394.53
2018-08-04T17:57:43.012Z,101403.56
2018-08-04T18:00:11.121Z,101408.92
2018-08-04T18:02:39.316Z,101411.59
2018-08-04T18:05:07.936Z,101406.58
2018-08-04T18:07:36.384Z,101412.53
2018-08-04T18:10:04.497Z,101404.67
2018-08-04T18:12:32.645Z,101402.59
2018-08-04T18:15:00.848Z,101411.95
2018-08-04T18:17:29.979Z,101405.20
2018-08-04T18:19:58.137Z,101413.37
2018-08-04T18:22:26.288Z,101413.20
2018-08-04T18:24:54.499Z,101414.42
2018-08-04T18:27:22.622Z,101410.41
2018-08-04T18:29:50.934Z,101403.55
2018-08-04T18:32:18.982Z,101406.93
2018-08-04T18:34:47.079Z,101407.77
2018-08-04T18:37:15.255Z,101417.05
2018-08-04T18:39:43.411Z,101415.80
2018-08-04T18:42:11.572Z,101426.84
2018-08-04T18:44:39.802Z,101437.22
2018-08-04T18:47:08.283Z,101442.80
2018-08-04T18:49:36.416Z,101449.44
2018-08-04T18:52:04.538Z,101444.44
2018-08-04T18:54:32.656Z,101426.82
2018-08-04T18:57:00.802Z,101416.66
2018-08-04T18:59:28.915Z,101421.70
2018-08-04T19:01:57.052Z,101428.87
2018-08-04T19:04:25.192Z,101426.59
2018-08-04T19:06:53.316Z,101432.80
2018-08-04T19:09:21.472Z,101429.59
2018-08-04T19:11:49.567Z,101437.05
2018-08-04T19:14:17.737Z,101435.02
2018-08-04T19:16:45.970Z,101437.64
2018-08-04T19:19:14.132Z,101433.22
2018-08-04T19:21:42.309Z,101434.13
2018-08-04T19:24:10.409Z,101429.08
2018-08-04T19:26:38.499Z,101431.25
2018-08-04T19:29:06.594Z,101442.28
2018-08-04T19:31:34.733Z,101438.66
2018-08-04T19:34:02.857Z,101441.23
2018-08-04T19:36:30.953Z,101441.86
2018-08-04T19:38:59.101Z,101443.62
2018-08-04T19:41:27.235Z,101446.50
2018-08-04T19:43:55.373Z,101451.76
2018-08-04T19:46:23.491Z,101451.48
2018-08-04T19:48:51.655Z,101449.41
2018-08-04T19:51:19.745Z,101454.04
2018-08-04T19:53:47.861Z,101454.84
2018-08-04T19:56:15.960Z,101462.55
2018-08-04T19:58:44.119Z,101461.01
2018-08-04T20:01:12.236Z,101466.89
2018-08-04T20:03:40.380Z,101468.80
2018-08-04T20:06:08.492Z,101465.00
2018-08-04T20:08:36.603Z,101464.01
2018-08-04T20:11:04.715Z,101466.05
2018-08-04T20:13:32.899Z,101464.23
2018-08-04T20:16:01.035Z,101465.14
2018-08-04T20:18:29.124Z,101468.78
2018-08-04T20:20:57.287Z,101474.30
2018-08-04T20:23:25.416Z,101470.31
2018-08-04T20:25:53.528Z,101469.09
2018-08-04T20:28:22.028Z,101478.77
2018-08-04T20:30:50.187Z,101480.15
2018-08-04T20:33:18.315Z,101481.70
2018-08-04T20:35:46.451Z,101484.27
2018-08-04T20:38:14.579Z,101486.23
2018-08-04T20:40:42.720Z,101486.27
2018-08-04T20:43:11.002Z,101486.09
2018-08-04T20:45:39.118Z,101479.41
2018-08-04T20:48:07.231Z,101479.31
2018-08-04T20:50:35.391Z,101473.73
2018-08-04T20:53:03.900Z,101472.95
2018-08-04T20:55:32.047Z,101475.02
2018-08-04T20:58:00.120Z,101476.30
2018-08-04T21:00:34.041Z,101470.13
2018-08-04T21:03:02.132Z,101478.25
2018-08-04T21:05:30.263Z,101474.68
2018-08-04T21:07:58.331Z,101473.19
2018-08-04T21:10:26.416Z,101477.47
2018-08-04T21:12:54.533Z,101471.34
2018-08-04T21:15:22.628Z,101475.98
2018-08-04T21:17:50.726Z,101465.86
2018-08-04T21:20:18.847Z,101468.09
2018-08-04T21:22:46.935Z,101474.91
2018-08-04T21:25:15.015Z,101474.27
2018-08-04T21:27:43.119Z,101477.31
2018-08-04T21:30:11.259Z,101476.34
2018-08-04T21:32:39.336Z,101480.22
2018-08-04T21:35:07.444Z,101477.23
2018-08-04T21:37:35.579Z,101475.28
2018-08-04T21:40:03.691Z,101476.48
2018-08-04T21:42:31.780Z,101477.64
2018-08-04T21:44:59.922Z,101484.10
2018-08-04T21:47:28.084Z,101485.91
2018-08-04T21:49:56.232Z,101485.18
2018-08-04T21:52:24.382Z,101491.21
2018-08-04T21:54:52.711Z,101492.41
2018-08-04T21:57:20.773Z,101494.23
2018-08-04T21:59:48.896Z,101485.69
2018-08-04T22:02:17.051Z,101487.34
2018-08-04T22:04:45.151Z,101484.82
2018-08-04T22:07:50.606Z,101490.69
2018-08-04T22:10:19.296Z,101495.03
2018-08-04T22:12:47.392Z,101494.55
2018-08-04T22:15:16.143Z,101500.22
2018-08-04T22:17:44.261Z,101501.67
2018-08-04T22:20:14.456Z,101507.59
2018-08-04T22:22:43.041Z,101504.27
2018-08-04T22:25:14.341Z,101507.17
2018-08-04T22:27:42.474Z,101497.53
2018-08-04T22:30:13.814Z,101502.84
2018-08-04T22:32:42.433Z,101506.34
2018-08-04T22:35:10.502Z,101504.33
2018-08-04T22:37:40.220Z,101503.50
2018-08-04T22:40:09.410Z,101502.09
2018-08-04T22:42:37.780Z,101500.65
2018-08-04T22:46:14.337Z,101500.77
2018-08-04T22:48:44.783Z,101503.30
2018-08-04T22:51:12.927Z,101502.70
2018-08-04T22:53:41.016Z,101501.73
2018-08-04T22:56:09.118Z,101505.35
2018-08-04T22:58:37.206Z,101501.85
2018-08-04T23:01:05.422Z,101503.70
2018-08-04T23:03:33.550Z,101505.86
2018-08-04T23:06:01.698Z,101505.98
2018-08-04T23:08:29.772Z,101507.52
2018-08-04T23:10:57.876Z,101504.86
2018-08-04T23:13:26.035Z,101507.66
2018-08-04T23:15:54.132Z,101510.43
2018-08-04T23:18:22.239Z,101507.17
2018-08-04T23:20:50.339Z,101512.13
2018-08-04T23:23:18.461Z,101509.23
2018-08-04T23:25:46.539Z,101509.20
2018-08-04T23:28:14.627Z,101513.91
2018-08-04T23:30:42.721Z,101507.66
2018-08-04T23:33:11.804Z,101506.82
2018-08-04T23:35:39.921Z,101507.42
2018-08-04T23:38:08.021Z,101509.45
2018-08-04T23:40:36.088Z,101509.59
2018-08-04T23:43:04.188Z,101511.26
2018-08-04T23:45:32.332Z,101513.19
2018-08-04T23:48:00.420Z,101517.41
2018-08-04T23:50:28.528Z,101519.83
2018-08-04T23:52:56.616Z,101524.63
2018-08-04T23:55:24.764Z,101527.17
2018-08-04T23:57:52.865Z,101528.50
